sensor_id;sensor_type;location;lat;lon;timestamp;temperature;humidity
16491;DHT22;8356;51.214;3.270;2023-02-10T00:01:16;180.00;2252.80
16491;DHT22;8356;51.214;3.270;2023-02-10T00:03:42;179.90;2252.80
16491;DHT22;8356;51.214;3.270;2023-02-10T00:06:09;179.90;2252.80
16491;DHT22;8356;51.214;3.270;2023-02-10T00:08:35;179.90;2252.80
16491;DHT22;8356;51.214;3.270;2023-02-10T00:11:04;179.80;2252.80
16491;DHT22;8356;51.214;3.270;2023-02-10T00:13:30;179.90;2252.80
16491;DHT22;8356;51.214;3.270;2023-02-10T00:15:59;179.90;2252.80
16491;DHT22;8356;51.214;3.270;2023-02-10T00:18:26;179.60;2252.80
16491;DHT22;8356;51.214;3.270;2023-02-10T00:20:52;179.50;2252.80
16491;DHT22;8356;51.214;3.270;2023-02-10T00:23:17;179.40;2252.80
16491;DHT22;8356;51.214;3.270;2023-02-10T00:25:43;179.40;2252.80
16491;DHT22;8356;51.214;3.270;2023-02-10T00:28:09;179.40;2252.80
16491;DHT22;8356;51.214;3.270;2023-02-10T00:30:35;179.40;2252.80
16491;DHT22;8356;51.214;3.270;2023-02-10T00:33:01;179.40;2252.80
16491;DHT22;8356;51.214;3.270;2023-02-10T00:35:26;179.50;2252.80
16491;DHT22;8356;51.214;3.270;2023-02-10T00:37:52;179.50;2252.80
16491;DHT22;8356;51.214;3.270;2023-02-10T00:40:18;179.50;2252.80
16491;DHT22;8356;51.214;3.270;2023-02-10T00:42:43;179.40;2252.80
16491;DHT22;8356;51.214;3.270;2023-02-10T00:45:09;179.30;2252.80
16491;DHT22;8356;51.214;3.270;2023-02-10T00:47:35;179.30;2252.80
16491;DHT22;8356;51.214;3.270;2023-02-10T00:50:01;179.40;2252.80
16491;DHT22;8356;51.214;3.270;2023-02-10T00:52:27;179.70;2252.80
16491;DHT22;8356;51.214;3.270;2023-02-10T00:54:53;179.20;2252.80
16491;DHT22;8356;51.214;3.270;2023-02-10T00:57:18;179.20;2252.80
16491;DHT22;8356;51.214;3.270;2023-02-10T00:59:44;179.30;2252.80
16491;DHT22;8356;51.214;3.270;2023-02-10T01:02:10;179.30;2252.80
16491;DHT22;8356;51.214;3.270;2023-02-10T01:04:35;179.30;2252.80
16491;DHT22;8356;51.214;3.270;2023-02-10T01:07:01;179.20;2252.80
16491;DHT22;8356;51.214;3.270;2023-02-10T01:09:27;179.20;2252.80
16491;DHT22;8356;51.214;3.270;2023-02-10T01:11:53;179.20;2252.80
16491;DHT22;8356;51.214;3.270;2023-02-10T01:14:18;179.30;2252.80
16491;DHT22;8356;51.214;3.270;2023-02-10T01:16:44;154.50;2252.80
16491;DHT22;8356;51.214;3.270;2023-02-10T01:19:10;154.50;2252.80
16491;DHT22;8356;51.214;3.270;2023-02-10T01:21:36;179.20;2252.80
16491;DHT22;8356;51.214;3.270;2023-02-10T01:24:04;179.40;2252.80
16491;DHT22;8356;51.214;3.270;2023-02-10T01:26:30;179.40;2252.80
16491;DHT22;8356;51.214;3.270;2023-02-10T01:28:56;179.30;2252.80
16491;DHT22;8356;51.214;3.270;2023-02-10T01:31:22;154.50;2252.80
16491;DHT22;8356;51.214;3.270;2023-02-10T01:33:51;154.40;2252.80
16491;DHT22;8356;51.214;3.270;2023-02-10T01:36:19;179.20;2252.80
16491;DHT22;8356;51.214;3.270;2023-02-10T01:38:45;179.20;2252.80
16491;DHT22;8356;51.214;3.270;2023-02-10T01:41:12;179.20;2252.80
16491;DHT22;8356;51.214;3.270;2023-02-10T01:43:59;154.50;2252.80
16491;DHT22;8356;51.214;3.270;2023-02-10T01:46:26;154.50;2252.80
16491;DHT22;8356;51.214;3.270;2023-02-10T01:48:53;154.40;2252.80
16491;DHT22;8356;51.214;3.270;2023-02-10T01:51:34;154.30;2252.80
16491;DHT22;8356;51.214;3.270;2023-02-10T01:54:03;154.30;2252.80
16491;DHT22;8356;51.214;3.270;2023-02-10T01:56:29;154.40;2252.80
16491;DHT22;8356;51.214;3.270;2023-02-10T01:58:55;154.40;2252.80
16491;DHT22;8356;51.214;3.270;2023-02-10T02:01:21;154.40;2252.80
16491;DHT22;8356;51.214;3.270;2023-02-10T02:03:47;154.50;2252.80
16491;DHT22;8356;51.214;3.270;2023-02-10T02:06:13;179.20;2252.80
16491;DHT22;8356;51.214;3.270;2023-02-10T02:08:39;154.30;2252.80
16491;DHT22;8356;51.214;3.270;2023-02-10T02:11:11;154.30;2252.80
16491;DHT22;8356;51.214;3.270;2023-02-10T02:16:16;154.20;2252.80
16491;DHT22;8356;51.214;3.270;2023-02-10T02:18:53;154.20;2252.80
16491;DHT22;8356;51.214;3.270;2023-02-10T02:22:07;154.20;2252.80
16491;DHT22;8356;51.214;3.270;2023-02-10T02:30:20;154.30;2252.80
16491;DHT22;8356;51.214;3.270;2023-02-10T02:32:58;154.20;2252.80
16491;DHT22;8356;51.214;3.270;2023-02-10T02:35:38;154.20;2252.80
16491;DHT22;8356;51.214;3.270;2023-02-10T02:38:05;154.20;2252.80
16491;DHT22;8356;51.214;3.270;2023-02-10T02:40:31;179.30;2252.80
16491;DHT22;8356;51.214;3.270;2023-02-10T02:42:57;154.10;2252.80
16491;DHT22;8356;51.214;3.270;2023-02-10T02:51:00;154.40;2252.80
16491;DHT22;8356;51.214;3.270;2023-02-10T02:53:37;154.30;2252.80
16491;DHT22;8356;51.214;3.270;2023-02-10T02:59:17;154.20;2252.80
16491;DHT22;8356;51.214;3.270;2023-02-10T03:02:07;154.10;2252.80
16491;DHT22;8356;51.214;3.270;2023-02-10T03:04:33;154.00;2252.80
16491;DHT22;8356;51.214;3.270;2023-02-10T03:07:01;154.10;2252.80
16491;DHT22;8356;51.214;3.270;2023-02-10T03:09:27;154.10;2252.80
16491;DHT22;8356;51.214;3.270;2023-02-10T03:11:53;153.90;2252.80
16491;DHT22;8356;51.214;3.270;2023-02-10T03:14:19;153.90;2252.80
16491;DHT22;8356;51.214;3.270;2023-02-10T03:16:45;154.00;2252.80
16491;DHT22;8356;51.214;3.270;2023-02-10T03:19:11;154.20;2252.80
16491;DHT22;8356;51.214;3.270;2023-02-10T03:21:36;154.10;2252.80
16491;DHT22;8356;51.214;3.270;2023-02-10T03:24:02;154.00;2252.80
16491;DHT22;8356;51.214;3.270;2023-02-10T03:26:29;154.00;2252.80
16491;DHT22;8356;51.214;3.270;2023-02-10T03:28:54;154.00;2252.80
16491;DHT22;8356;51.214;3.270;2023-02-10T03:31:20;154.20;2252.80
16491;DHT22;8356;51.214;3.270;2023-02-10T03:33:46;153.90;2252.80
16491;DHT22;8356;51.214;3.270;2023-02-10T03:36:12;154.20;2252.80
16491;DHT22;8356;51.214;3.270;2023-02-10T03:38:38;154.10;2252.80
16491;DHT22;8356;51.214;3.270;2023-02-10T03:41:04;154.10;2252.80
16491;DHT22;8356;51.214;3.270;2023-02-10T03:43:30;154.20;2252.80
16491;DHT22;8356;51.214;3.270;2023-02-10T03:45:59;154.30;2252.80
16491;DHT22;8356;51.214;3.270;2023-02-10T03:48:26;154.20;2252.80
16491;DHT22;8356;51.214;3.270;2023-02-10T03:51:00;154.20;2252.80
16491;DHT22;8356;51.214;3.270;2023-02-10T03:53:27;154.20;2252.80
16491;DHT22;8356;51.214;3.270;2023-02-10T03:55:53;154.20;2252.80
16491;DHT22;8356;51.214;3.270;2023-02-10T03:58:20;154.10;2252.80
16491;DHT22;8356;51.214;3.270;2023-02-10T04:00:45;154.10;2252.80
16491;DHT22;8356;51.214;3.270;2023-02-10T04:03:11;154.10;2252.80
16491;DHT22;8356;51.214;3.270;2023-02-10T04:05:36;154.10;2252.80
16491;DHT22;8356;51.214;3.270;2023-02-10T04:08:02;154.00;2252.80
16491;DHT22;8356;51.214;3.270;2023-02-10T04:10:28;154.10;2252.80
16491;DHT22;8356;51.214;3.270;2023-02-10T04:12:54;154.10;2252.80
16491;DHT22;8356;51.214;3.270;2023-02-10T04:15:19;154.10;2252.80
16491;DHT22;8356;51.214;3.270;2023-02-10T04:17:45;154.00;2252.80
16491;DHT22;8356;51.214;3.270;2023-02-10T04:20:11;153.90;2252.80
16491;DHT22;8356;51.214;3.270;2023-02-10T04:22:37;154.00;2252.80
16491;DHT22;8356;51.214;3.270;2023-02-10T04:25:03;153.90;2252.80
16491;DHT22;8356;51.214;3.270;2023-02-10T04:27:29;154.00;2252.80
16491;DHT22;8356;51.214;3.270;2023-02-10T04:29:55;154.10;2252.80
16491;DHT22;8356;51.214;3.270;2023-02-10T04:32:21;154.10;2252.80
16491;DHT22;8356;51.214;3.270;2023-02-10T04:34:47;154.10;2252.80
16491;DHT22;8356;51.214;3.270;2023-02-10T04:37:13;154.10;2252.80
16491;DHT22;8356;51.214;3.270;2023-02-10T04:39:39;154.00;2252.80
16491;DHT22;8356;51.214;3.270;2023-02-10T04:42:04;154.10;2252.80
16491;DHT22;8356;51.214;3.270;2023-02-10T04:44:30;154.00;2252.80
16491;DHT22;8356;51.214;3.270;2023-02-10T04:46:56;154.00;2252.80
16491;DHT22;8356;51.214;3.270;2023-02-10T04:49:22;154.00;2252.80
16491;DHT22;8356;51.214;3.270;2023-02-10T04:51:48;154.00;2252.80
16491;DHT22;8356;51.214;3.270;2023-02-10T04:54:14;154.20;2252.80
16491;DHT22;8356;51.214;3.270;2023-02-10T04:56:40;154.10;2252.80
16491;DHT22;8356;51.214;3.270;2023-02-10T04:59:05;153.90;2252.80
16491;DHT22;8356;51.214;3.270;2023-02-10T05:01:31;154.00;2252.80
16491;DHT22;8356;51.214;3.270;2023-02-10T05:03:57;154.10;2252.80
16491;DHT22;8356;51.214;3.270;2023-02-10T05:06:23;154.10;2252.80
16491;DHT22;8356;51.214;3.270;2023-02-10T05:08:48;154.10;2252.80
16491;DHT22;8356;51.214;3.270;2023-02-10T05:11:15;154.10;2252.80
16491;DHT22;8356;51.214;3.270;2023-02-10T05:13:42;154.10;2252.80
16491;DHT22;8356;51.214;3.270;2023-02-10T05:16:09;154.00;2252.80
16491;DHT22;8356;51.214;3.270;2023-02-10T05:18:35;154.00;2252.80
16491;DHT22;8356;51.214;3.270;2023-02-10T05:21:02;154.10;2252.80
16491;DHT22;8356;51.214;3.270;2023-02-10T05:23:28;154.20;2252.80
16491;DHT22;8356;51.214;3.270;2023-02-10T05:25:54;154.30;2252.80
16491;DHT22;8356;51.214;3.270;2023-02-10T05:28:20;154.20;2252.80
16491;DHT22;8356;51.214;3.270;2023-02-10T05:30:47;154.10;2252.80
16491;DHT22;8356;51.214;3.270;2023-02-10T05:33:13;154.10;2252.80
16491;DHT22;8356;51.214;3.270;2023-02-10T05:35:39;154.20;2252.80
16491;DHT22;8356;51.214;3.270;2023-02-10T05:38:05;154.20;2252.80
16491;DHT22;8356;51.214;3.270;2023-02-10T05:40:31;154.30;2252.80
16491;DHT22;8356;51.214;3.270;2023-02-10T05:42:57;154.30;2252.80
16491;DHT22;8356;51.214;3.270;2023-02-10T05:45:23;154.40;2252.80
16491;DHT22;8356;51.214;3.270;2023-02-10T05:47:49;154.30;2252.80
16491;DHT22;8356;51.214;3.270;2023-02-10T05:50:16;154.10;2252.80
16491;DHT22;8356;51.214;3.270;2023-02-10T05:52:42;154.20;2252.80
16491;DHT22;8356;51.214;3.270;2023-02-10T05:55:07;154.20;2252.80
16491;DHT22;8356;51.214;3.270;2023-02-10T05:57:33;154.10;2252.80
16491;DHT22;8356;51.214;3.270;2023-02-10T05:59:59;154.20;2252.80
16491;DHT22;8356;51.214;3.270;2023-02-10T06:02:24;154.10;2252.80
16491;DHT22;8356;51.214;3.270;2023-02-10T06:04:50;154.00;2252.80
16491;DHT22;8356;51.214;3.270;2023-02-10T06:07:16;154.10;2252.80
16491;DHT22;8356;51.214;3.270;2023-02-10T06:09:42;154.00;2252.80
16491;DHT22;8356;51.214;3.270;2023-02-10T06:12:08;154.10;2252.80
16491;DHT22;8356;51.214;3.270;2023-02-10T06:14:34;154.30;2252.80
16491;DHT22;8356;51.214;3.270;2023-02-10T06:17:02;154.10;2252.80
16491;DHT22;8356;51.214;3.270;2023-02-10T06:19:28;154.10;2252.80
16491;DHT22;8356;51.214;3.270;2023-02-10T06:21:54;154.10;2252.80
16491;DHT22;8356;51.214;3.270;2023-02-10T06:24:20;154.00;2252.80
16491;DHT22;8356;51.214;3.270;2023-02-10T06:26:45;154.10;2252.80
16491;DHT22;8356;51.214;3.270;2023-02-10T06:29:11;154.10;2252.80
16491;DHT22;8356;51.214;3.270;2023-02-10T06:31:37;154.00;2252.80
16491;DHT22;8356;51.214;3.270;2023-02-10T06:34:02;154.00;2252.80
16491;DHT22;8356;51.214;3.270;2023-02-10T06:36:28;154.00;2252.80
16491;DHT22;8356;51.214;3.270;2023-02-10T06:38:54;154.00;2252.80
16491;DHT22;8356;51.214;3.270;2023-02-10T06:41:19;153.90;2252.80
16491;DHT22;8356;51.214;3.270;2023-02-10T06:43:45;153.90;2252.80
16491;DHT22;8356;51.214;3.270;2023-02-10T06:46:11;154.00;2252.80
16491;DHT22;8356;51.214;3.270;2023-02-10T06:48:38;154.10;2252.80
16491;DHT22;8356;51.214;3.270;2023-02-10T06:51:04;154.20;2252.80
16491;DHT22;8356;51.214;3.270;2023-02-10T06:53:30;154.10;2252.80
16491;DHT22;8356;51.214;3.270;2023-02-10T06:55:56;154.10;2252.80
16491;DHT22;8356;51.214;3.270;2023-02-10T06:58:22;154.10;2252.80
16491;DHT22;8356;51.214;3.270;2023-02-10T07:00:48;154.00;2252.80
16491;DHT22;8356;51.214;3.270;2023-02-10T07:03:14;154.10;2252.80
16491;DHT22;8356;51.214;3.270;2023-02-10T07:05:40;154.00;2252.80
16491;DHT22;8356;51.214;3.270;2023-02-10T07:08:06;154.00;2252.80
16491;DHT22;8356;51.214;3.270;2023-02-10T07:10:32;154.00;2252.80
16491;DHT22;8356;51.214;3.270;2023-02-10T07:12:58;154.10;2252.80
16491;DHT22;8356;51.214;3.270;2023-02-10T07:15:24;154.10;2252.80
16491;DHT22;8356;51.214;3.270;2023-02-10T07:17:50;154.10;2252.80
16491;DHT22;8356;51.214;3.270;2023-02-10T07:20:18;154.10;2252.80
16491;DHT22;8356;51.214;3.270;2023-02-10T07:22:43;154.10;2252.80
16491;DHT22;8356;51.214;3.270;2023-02-10T07:25:09;154.00;2252.80
